Hazen, Nevada
Current Conditions -  °F | °C
As of 4:56 PM on Tuesday 27 Jan 2015 (Local Time) from KNFL Reporting Station
Light Rain Light Rain  
Wind Chill: 48°   Ceiling: 8000
Heat Index: 48°   Visibility: 10mi
Dew Point: 41°   Wind: 0mph
Humidity: 77%   Direction: NA
Pressure: 30.2"   Gusts: NA
Location:  39.5869°N, 119.152°W
Report Text: KNFL 280056Z 00000KT 10SM -RA FEW040 SCT060 OVC080 09/05 A3020 RMK AO2 SLP191 P0000 T00890050
Loading
Personal Weather Stations






























Interactive Weather Map New forecast layout! Learn more

10-Day Weather Forecast

Advertisements
Track Severe Weather on mobile